EHSC

Goeree Le Sea

Goeree Le Sea, The Netherlands
METAR EHSC 240155Z AUTO 06021KT 9999 ///////// 15/12 Q1019 W13/H11
Observed Flight Rules
May-24 @ 01:55 UTC (23 minutes ago)
Wind Visibility
60° at 21 knots 10,000+ meters
Temperatures Readings
Current 15°C / 59°F
Dewpoint 12°C / 54°F
Humidity 82%
Altimeter 30.09" Hg
Pressure 1019 hPa
Elevation 50
METAR EHSC 240155Z AUTO 06021KT 9999 ///////// 15/12 Q1019 W13/H11
Observed Flight Rules
May-24 @ 01:55 UTC
(23 minutes ago)
Wind Visibility
60° at 21 knots 10,000+ meters
Temperature Dewpoint
15°C / 59°F 12°C / 54°F
Humidity Altimeter Pressure
82% 30.09" Hg 1019 hPa